Star Mariella — V7KK3 — position and weather

sailwx.info

Track history (hours):
 
Tides and Currents Weather Stations Pressure Air Temp Water Temp Dewpoint Dewpoint Depression Visibility Wind Speed Wind Dir Waves Ship Positions

Star Mariella

Last reported at 2017-Dec-07 12:09 UTC. Time now 2017-Dec-13 03:34 UTC.
Position N 25°06' E 122°38'.

Length 229 m; draft 14.2 m.

Type: Cargo ship. MMSI: 538002632.

Date/timePositionNaut miles runAvg speedWind from/ knotsBaromVisibWave heightAir tempDewpointWater temp
2017-Dec-07 12:09N 25°06' E 122°38'212.6
2017-Dec-07 12:00N 25°04' E 122°38'612.2
2017-Dec-07 11:30N 24°58' E 122°36'612.1
2017-Dec-07 11:01N 24°52' E 122°34'612.3
2017-Dec-07 10:31N 24°47' E 122°31'612.5
2017-Dec-07 10:00N 24°41' E 122°29'612.7
2017-Dec-07 09:31N 24°35' E 122°26'612.7
2017-Dec-07 09:00N 24°29' E 122°24'612.1
2017-Dec-07 08:30N 24°23' E 122°21'612.7
2017-Dec-07 08:01N 24°17' E 122°19'713.8
2017-Dec-07 07:30N 24°11' E 122°16'713.8
2017-Dec-07 07:01N 24°04' E 122°13'713.1
2017-Dec-07 06:30N 23°58' E 122°11'4613.2
2017-Dec-07 02:59N 23°14' E 121°55'1812.5
2017-Dec-07 01:30N 22°58' E 121°46'611.1
2017-Dec-07 01:00N 22°52' E 121°44'711.4
2017-Dec-07 00:22N 22°45' E 121°41'912.7
2017-Dec-06 23:41N 22°38' E 121°37'412.3
2017-Dec-06 23:20N 22°34' E 121°35'411.7
2017-Dec-06 23:00N 22°31' E 121°33'612.0
2017-Dec-06 22:29N 22°25' E 121°29'1112.2
2017-Dec-06 21:36N 22°17' E 121°22'212.3
2017-Dec-06 21:28N 22°15' E 121°21'612.6
2017-Dec-06 21:00N 22°10' E 121°18'  
2017-Nov-30 05:51N 01°17' E 104°01'0 0.0
2017-Nov-30 05:29N 01°17' E 104°01'0 0.0
2017-Nov-30 04:53N 01°17' E 104°01'0 0.0
2017-Nov-30 04:27N 01°17' E 104°01'0 0.0
2017-Nov-30 03:58N 01°17' E 104°01'0 0.0
2017-Nov-30 03:30N 01°17' E 104°01'0 0.0
2017-Nov-30 02:51N 01°17' E 104°01'0 0.1
2017-Nov-30 02:28N 01°17' E 104°01'0 0.2
2017-Nov-30 01:55N 01°17' E 104°01'0 0.2
2017-Nov-30 01:30N 01°17' E 104°01'0 0.0
2017-Nov-30 00:59N 01°17' E 104°01'0 0.1
2017-Nov-30 00:30N 01°17' E 104°01'0 0.0
2017-Nov-29 23:33N 01°17' E 104°01'0 0.0
2017-Nov-29 23:02N 01°17' E 104°01'0 0.0
2017-Nov-29 22:59N 01°17' E 104°01'0 0.1
2017-Nov-29 22:30N 01°17' E 104°01'0 0.0
2017-Nov-29 21:59N 01°17' E 104°01'0 0.2
2017-Nov-29 21:30N 01°17' E 104°01'0 0.0
2017-Nov-29 20:56N 01°17' E 104°01'0 0.2
2017-Nov-29 20:30N 01°17' E 104°01'0 0.1
2017-Nov-29 19:59N 01°17' E 104°01'0 0.3
2017-Nov-29 19:30N 01°17' E 104°02'0 0.1
2017-Nov-29 18:58N 01°17' E 104°01'0 0.8
2017-Nov-29 18:28N 01°17' E 104°02'4 7.7
2017-Nov-29 17:59N 01°16' E 103°58'1 2.1
2017-Nov-29 17:30N 01°15' E 103°57'1 1.4
2017-Nov-29 17:00N 01°15' E 103°57'2 4.0
2017-Nov-29 16:30N 01°13' E 103°56'3 6.6
2017-Nov-29 16:00N 01°12' E 103°53'3 6.7
2017-Nov-29 15:30N 01°10' E 103°50'4 8.1
2017-Nov-29 15:00N 01°08' E 103°46'611.1
2017-Nov-29 14:30N 01°04' E 103°42'510.0
2017-Nov-29 14:00N 01°03' E 103°37'712.9
2017-Nov-29 13:30N 01°07' E 103°32'613.0
2017-Nov-29 13:00N 01°10' E 103°26'713.0
2017-Nov-29 12:30N 01°14' E 103°21'  
Track history (hours):
 
Tides and Currents Weather Stations Pressure Air Temp Water Temp Dewpoint Dewpoint Depression Visibility Wind Speed Wind Dir Waves Ship Positions

Star Mariella

Last reported at 2017-Dec-07 12:09 UTC. Time now 2017-Dec-13 03:34 UTC.
Position N 25°06' E 122°38'.

Length 229 m; draft 14.2 m.

Type: Cargo ship. MMSI: 538002632.

Date/timePositionNaut miles runAvg speedWind from/ knotsBaromVisibWave heightAir tempDewpointWater temp
2017-Dec-07 12:09N 25°06' E 122°38'212.6
2017-Dec-07 12:00N 25°04' E 122°38'612.2
2017-Dec-07 11:30N 24°58' E 122°36'612.1
2017-Dec-07 11:01N 24°52' E 122°34'612.3
2017-Dec-07 10:31N 24°47' E 122°31'612.5
2017-Dec-07 10:00N 24°41' E 122°29'612.7
2017-Dec-07 09:31N 24°35' E 122°26'612.7
2017-Dec-07 09:00N 24°29' E 122°24'612.1
2017-Dec-07 08:30N 24°23' E 122°21'612.7
2017-Dec-07 08:01N 24°17' E 122°19'713.8
2017-Dec-07 07:30N 24°11' E 122°16'713.8
2017-Dec-07 07:01N 24°04' E 122°13'713.1
2017-Dec-07 06:30N 23°58' E 122°11'4613.2
2017-Dec-07 02:59N 23°14' E 121°55'1812.5
2017-Dec-07 01:30N 22°58' E 121°46'611.1
2017-Dec-07 01:00N 22°52' E 121°44'711.4
2017-Dec-07 00:22N 22°45' E 121°41'912.7
2017-Dec-06 23:41N 22°38' E 121°37'412.3
2017-Dec-06 23:20N 22°34' E 121°35'411.7
2017-Dec-06 23:00N 22°31' E 121°33'612.0
2017-Dec-06 22:29N 22°25' E 121°29'1112.2
2017-Dec-06 21:36N 22°17' E 121°22'212.3
2017-Dec-06 21:28N 22°15' E 121°21'612.6
2017-Dec-06 21:00N 22°10' E 121°18'  
2017-Nov-30 05:51N 01°17' E 104°01'0 0.0
2017-Nov-30 05:29N 01°17' E 104°01'0 0.0
2017-Nov-30 04:53N 01°17' E 104°01'0 0.0
2017-Nov-30 04:27N 01°17' E 104°01'0 0.0
2017-Nov-30 03:58N 01°17' E 104°01'0 0.0
2017-Nov-30 03:30N 01°17' E 104°01'0 0.0
2017-Nov-30 02:51N 01°17' E 104°01'0 0.1
2017-Nov-30 02:28N 01°17' E 104°01'0 0.2
2017-Nov-30 01:55N 01°17' E 104°01'0 0.2
2017-Nov-30 01:30N 01°17' E 104°01'0 0.0
2017-Nov-30 00:59N 01°17' E 104°01'0 0.1
2017-Nov-30 00:30N 01°17' E 104°01'0 0.0
2017-Nov-29 23:33N 01°17' E 104°01'0 0.0
2017-Nov-29 23:02N 01°17' E 104°01'0 0.0
2017-Nov-29 22:59N 01°17' E 104°01'0 0.1
2017-Nov-29 22:30N 01°17' E 104°01'0 0.0
2017-Nov-29 21:59N 01°17' E 104°01'0 0.2
2017-Nov-29 21:30N 01°17' E 104°01'0 0.0
2017-Nov-29 20:56N 01°17' E 104°01'0 0.2
2017-Nov-29 20:30N 01°17' E 104°01'0 0.1
2017-Nov-29 19:59N 01°17' E 104°01'0 0.3
2017-Nov-29 19:30N 01°17' E 104°02'0 0.1
2017-Nov-29 18:58N 01°17' E 104°01'0 0.8
2017-Nov-29 18:28N 01°17' E 104°02'4 7.7
2017-Nov-29 17:59N 01°16' E 103°58'1 2.1
2017-Nov-29 17:30N 01°15' E 103°57'1 1.4
2017-Nov-29 17:00N 01°15' E 103°57'2 4.0
2017-Nov-29 16:30N 01°13' E 103°56'3 6.6
2017-Nov-29 16:00N 01°12' E 103°53'3 6.7
2017-Nov-29 15:30N 01°10' E 103°50'4 8.1
2017-Nov-29 15:00N 01°08' E 103°46'611.1
2017-Nov-29 14:30N 01°04' E 103°42'510.0
2017-Nov-29 14:00N 01°03' E 103°37'712.9
2017-Nov-29 13:30N 01°07' E 103°32'613.0
2017-Nov-29 13:00N 01°10' E 103°26'713.0
2017-Nov-29 12:30N 01°14' E 103°21'  

Dump ship's entire track history